Time,TemperatureF,DewpointF,PressureIn,WindDirection,WindDirectionDegrees,WindSpeedMPH,WindSpeedGustMPH,Humidity,HourlyPrecipIn,Conditions,Clouds,dailyrainin,SoftwareType,DateUTC
2013-05-11 00:01:00,59.0,56.7,0.00,SW,220,0.0,0.0,92,0.00,,---,0.00,VWS V13.01,2013-05-11 04:01:00,
2013-05-11 00:03:00,59.0,57.0,0.00,SW,220,0.0,0.0,93,0.00,,---,0.00,VWS V13.01,2013-05-11 04:03:00,
2013-05-11 00:04:00,59.0,57.0,0.00,SW,220,0.0,0.0,93,0.00,,---,0.00,VWS V13.01,2013-05-11 04:04:00,
2013-05-11 00:10:00,58.8,56.8,0.00,SW,220,0.0,0.0,93,0.00,,---,0.00,VWS V13.01,2013-05-11 04:10:00,
2013-05-11 00:15:00,58.8,57.1,0.00,SW,220,0.0,0.0,94,0.00,,---,0.00,VWS V13.01,2013-05-11 04:15:00,
2013-05-11 00:20:00,58.8,57.1,0.00,SW,234,0.0,4.0,94,0.00,,---,0.00,VWS V13.01,2013-05-11 04:20:00,
2013-05-11 00:25:00,59.0,57.3,0.00,SW,219,0.0,4.9,94,0.00,,---,0.00,VWS V13.01,2013-05-11 04:25:00,
2013-05-11 00:30:00,58.8,57.1,0.00,SW,235,0.0,0.0,94,0.00,,---,0.00,VWS V13.01,2013-05-11 04:30:00,
2013-05-11 00:35:00,59.0,57.3,0.00,SW,217,0.0,6.3,94,0.00,,---,0.00,VWS V13.01,2013-05-11 04:35:00,
2013-05-11 00:40:00,59.0,57.3,0.00,SW,236,3.1,3.6,94,0.00,,---,0.00,VWS V13.01,2013-05-11 04:40:00,
2013-05-11 00:45:00,59.0,57.3,0.00,WNW,284,2.7,6.3,94,0.00,,---,0.00,VWS V13.01,2013-05-11 04:45:00,
2013-05-11 00:50:00,59.0,57.3,0.00,West,270,3.1,3.1,94,0.00,,---,0.00,VWS V13.01,2013-05-11 04:50:00,
2013-05-11 00:55:00,59.0,57.3,0.00,WSW,254,2.2,5.4,94,0.00,,---,0.00,VWS V13.01,2013-05-11 04:55:00,
2013-05-11 01:00:00,59.0,57.3,0.00,SW,218,3.6,5.4,94,0.00,,---,0.00,VWS V13.01,2013-05-11 05:00:00,
2013-05-11 01:05:00,59.0,57.3,0.00,South,191,3.6,5.8,94,0.00,,---,0.00,VWS V13.01,2013-05-11 05:05:00,
2013-05-11 01:10:00,59.0,57.3,0.00,SW,214,0.0,2.7,94,0.00,,---,0.00,VWS V13.01,2013-05-11 05:10:00,
2013-05-11 01:15:00,59.0,57.3,0.00,West,266,0.0,4.0,94,0.00,,---,0.00,VWS V13.01,2013-05-11 05:15:00,
2013-05-11 01:20:00,59.0,57.3,0.00,WSW,243,0.0,5.4,94,0.00,,---,0.00,VWS V13.01,2013-05-11 05:20:00,
2013-05-11 01:25:00,59.0,57.3,0.00,WSW,256,0.0,5.4,94,0.00,,---,0.00,VWS V13.01,2013-05-11 05:25:00,
2013-05-11 01:30:00,59.0,57.3,0.00,WSW,255,2.7,3.6,94,0.00,,---,0.00,VWS V13.01,2013-05-11 05:30:00,
2013-05-11 01:36:00,59.0,57.3,0.00,SW,233,3.1,4.9,94,0.00,,---,0.00,VWS V13.01,2013-05-11 05:36:00,
2013-05-11 01:41:00,59.0,57.3,0.00,SSW,211,5.4,5.4,94,0.00,,---,0.00,VWS V13.01,2013-05-11 05:41:00,
2013-05-11 01:46:00,59.2,57.2,0.00,WSW,249,3.1,5.8,93,0.00,,---,0.00,VWS V13.01,2013-05-11 05:46:00,
2013-05-11 01:51:00,59.2,57.2,0.00,WSW,253,0.0,3.1,93,0.00,,---,0.00,VWS V13.01,2013-05-11 05:51:00,
2013-05-11 01:56:00,59.2,57.2,0.00,SW,231,4.0,6.7,93,0.00,,---,0.00,VWS V13.01,2013-05-11 05:56:00,
2013-05-11 02:01:00,59.2,57.2,0.00,SW,230,4.5,5.8,93,0.00,,---,0.00,VWS V13.01,2013-05-11 06:01:00,
2013-05-11 02:06:00,59.2,57.2,0.00,SSW,204,3.6,6.3,93,0.00,,---,0.00,VWS V13.01,2013-05-11 06:06:00,
2013-05-11 02:11:00,59.4,57.3,0.00,WSW,257,2.7,3.1,93,0.00,,---,0.00,VWS V13.01,2013-05-11 06:11:00,
2013-05-11 02:16:00,59.4,57.3,0.00,SW,230,5.4,8.7,93,0.00,,---,0.00,VWS V13.01,2013-05-11 06:16:00,
2013-05-11 02:21:00,59.4,57.3,0.00,WSW,243,0.0,4.9,93,0.00,,---,0.00,VWS V13.01,2013-05-11 06:21:00,
2013-05-11 02:26:00,59.4,57.0,0.00,WSW,249,0.0,6.3,92,0.00,,---,0.00,VWS V13.01,2013-05-11 06:26:00,
2013-05-11 02:31:00,59.4,57.0,0.00,WSW,237,4.0,5.8,92,0.00,,---,0.00,VWS V13.01,2013-05-11 06:31:00,
2013-05-11 02:36:00,59.4,57.0,0.00,SW,219,5.4,5.8,92,0.00,,---,0.00,VWS V13.01,2013-05-11 06:36:00,
2013-05-11 02:41:00,59.4,57.0,0.00,South,176,2.7,4.0,92,0.00,,---,0.00,VWS V13.01,2013-05-11 06:41:00,
2013-05-11 02:46:00,59.4,57.0,0.00,SW,223,3.6,8.7,92,0.00,,---,0.00,VWS V13.01,2013-05-11 06:46:00,
2013-05-11 02:51:00,59.4,57.0,0.00,SW,235,6.3,6.3,92,0.00,,---,0.00,VWS V13.01,2013-05-11 06:51:00,
2013-05-11 02:56:00,59.4,57.0,0.00,SW,224,6.3,6.3,92,0.00,,---,0.00,VWS V13.01,2013-05-11 06:56:00,
2013-05-11 03:01:00,59.4,57.0,0.00,SW,236,3.6,6.3,92,0.00,,---,0.00,VWS V13.01,2013-05-11 07:01:00,
2013-05-11 03:07:00,59.5,57.2,0.00,SW,235,3.1,6.3,92,0.00,,---,0.00,VWS V13.01,2013-05-11 07:07:00,
2013-05-11 03:12:00,59.4,56.7,0.00,West,260,4.0,6.3,91,0.00,,---,0.00,VWS V13.01,2013-05-11 07:12:00,
2013-05-11 03:17:00,59.4,56.7,0.00,SW,229,0.0,6.3,91,0.00,,---,0.00,VWS V13.01,2013-05-11 07:17:00,
2013-05-11 03:22:00,59.4,56.7,0.00,WSW,245,4.0,7.2,91,0.00,,---,0.00,VWS V13.01,2013-05-11 07:22:00,
2013-05-11 03:27:00,59.4,56.7,0.00,WSW,239,4.0,7.6,91,0.00,,---,0.00,VWS V13.01,2013-05-11 07:27:00,
2013-05-11 03:32:00,59.4,56.7,0.00,SSW,208,4.0,8.1,91,0.00,,---,0.00,VWS V13.01,2013-05-11 07:32:00,
2013-05-11 03:37:00,59.4,56.7,0.00,WSW,243,5.4,8.1,91,0.00,,---,0.00,VWS V13.01,2013-05-11 07:37:00,
2013-05-11 03:42:00,59.4,56.4,0.00,SW,217,3.1,6.3,90,0.00,,---,0.00,VWS V13.01,2013-05-11 07:42:00,
2013-05-11 03:47:00,59.4,56.4,0.00,WSW,239,4.0,6.3,90,0.00,,---,0.00,VWS V13.01,2013-05-11 07:47:00,
2013-05-11 03:52:00,59.4,56.4,0.00,WSW,258,3.1,7.2,90,0.00,,---,0.00,VWS V13.01,2013-05-11 07:52:00,
2013-05-11 03:57:00,59.4,56.4,0.00,West,274,4.0,8.3,90,0.00,,---,0.00,VWS V13.01,2013-05-11 07:57:00,
2013-05-11 04:02:00,59.4,56.7,0.00,WSW,254,4.0,8.7,91,0.00,,---,0.00,VWS V13.01,2013-05-11 08:02:00,
2013-05-11 04:07:00,59.0,56.4,0.00,WSW,246,4.0,10.5,91,0.00,,---,0.00,VWS V13.01,2013-05-11 08:07:00,
2013-05-11 04:12:00,58.8,56.5,0.00,WSW,244,3.6,8.1,92,0.00,,---,0.00,VWS V13.01,2013-05-11 08:12:00,
2013-05-11 04:17:00,58.6,56.3,0.00,WSW,253,10.1,10.1,92,0.00,,---,0.00,VWS V13.01,2013-05-11 08:17:00,
2013-05-11 04:22:00,58.5,56.2,0.00,WSW,239,5.8,5.8,92,0.00,,---,0.00,VWS V13.01,2013-05-11 08:22:00,
2013-05-11 04:27:00,58.3,56.0,0.00,WSW,253,2.7,8.1,92,0.00,,---,0.00,VWS V13.01,2013-05-11 08:27:00,
2013-05-11 04:32:00,58.1,56.1,0.00,SSW,205,4.0,5.8,93,0.00,,---,0.00,VWS V13.01,2013-05-11 08:32:00,
2013-05-11 04:37:00,58.1,56.1,0.00,West,273,4.0,6.3,93,0.00,,---,0.00,VWS V13.01,2013-05-11 08:37:00,
2013-05-11 04:42:00,57.9,55.9,0.00,West,264,4.0,6.3,93,0.00,,---,0.00,VWS V13.01,2013-05-11 08:42:00,
2013-05-11 04:47:00,57.9,55.9,0.00,West,261,4.0,6.3,93,0.00,,---,0.00,VWS V13.01,2013-05-11 08:47:00,
2013-05-11 04:52:00,57.9,56.2,0.00,WSW,251,3.1,7.6,94,0.00,,---,0.00,VWS V13.01,2013-05-11 08:52:00,
2013-05-11 04:57:00,57.7,56.0,0.00,West,274,0.0,7.6,94,0.00,,---,0.00,VWS V13.01,2013-05-11 08:57:00,
2013-05-11 05:03:00,57.6,55.8,0.00,WSW,240,2.7,5.8,94,0.00,,---,0.00,VWS V13.01,2013-05-11 09:03:00,
2013-05-11 05:08:00,57.6,55.8,0.00,SW,229,5.8,8.1,94,0.00,,---,0.00,VWS V13.01,2013-05-11 09:08:00,
2013-05-11 05:13:00,57.4,55.7,0.00,West,266,6.3,6.3,94,0.00,,---,0.00,VWS V13.01,2013-05-11 09:13:00,
2013-05-11 05:18:00,57.2,55.2,0.00,West,270,6.3,8.7,93,0.00,,---,0.00,VWS V13.01,2013-05-11 09:18:00,
2013-05-11 05:23:00,56.8,54.5,0.00,WSW,257,4.0,5.4,92,0.00,,---,0.00,VWS V13.01,2013-05-11 09:23:00,
2013-05-11 05:28:00,56.5,53.9,0.00,WSW,241,8.3,12.8,91,0.00,,---,0.00,VWS V13.01,2013-05-11 09:28:00,
2013-05-11 05:33:00,55.9,52.4,0.00,SW,221,8.1,14.1,88,0.00,,---,0.00,VWS V13.01,2013-05-11 09:33:00,
2013-05-11 05:38:00,55.2,51.4,0.00,West,265,6.3,14.1,87,0.00,,---,0.00,VWS V13.01,2013-05-11 09:38:00,
2013-05-11 05:43:00,54.7,50.3,0.00,West,271,5.8,12.3,85,0.00,,---,0.00,VWS V13.01,2013-05-11 09:43:00,
2013-05-11 05:48:00,54.1,49.4,0.00,SW,234,5.8,13.2,84,0.00,,---,0.00,VWS V13.01,2013-05-11 09:48:00,
2013-05-11 05:53:00,53.8,49.1,0.00,North,3,4.5,8.7,84,0.00,,---,0.00,VWS V13.01,2013-05-11 09:53:00,
2013-05-11 05:58:00,53.4,48.7,0.00,SSW,192,10.5,11.0,84,0.00,,---,0.00,VWS V13.01,2013-05-11 09:58:00,
2013-05-11 06:03:00,52.9,48.2,0.00,West,260,10.1,11.0,84,0.00,,---,0.00,VWS V13.01,2013-05-11 10:03:00,
2013-05-11 06:08:00,52.7,48.0,0.00,WSW,243,6.7,12.3,84,0.00,,---,0.00,VWS V13.01,2013-05-11 10:08:00,
2013-05-11 06:13:00,52.3,48.0,0.00,West,276,5.8,12.3,85,0.00,,---,0.00,VWS V13.01,2013-05-11 10:13:00,
2013-05-11 06:18:00,52.2,47.8,0.00,SW,220,7.6,12.3,85,0.00,,---,0.00,VWS V13.01,2013-05-11 10:18:00,
2013-05-11 06:23:00,52.0,47.6,0.00,East,91,8.1,12.8,85,0.00,,---,0.00,VWS V13.01,2013-05-11 10:23:00,
2013-05-11 06:28:00,51.6,47.3,0.00,West,278,8.7,15.0,85,0.00,,---,0.00,VWS V13.01,2013-05-11 10:28:00,
2013-05-11 06:33:00,51.4,47.1,0.00,SW,223,7.6,11.9,85,0.00,,---,0.00,VWS V13.01,2013-05-11 10:33:00,
2013-05-11 06:38:00,51.1,46.7,0.00,West,259,7.6,17.0,85,0.00,,---,0.00,VWS V13.01,2013-05-11 10:38:00,
2013-05-11 06:43:00,50.9,46.6,0.00,SSW,210,7.6,11.9,85,0.00,,---,0.00,VWS V13.01,2013-05-11 10:43:00,
2013-05-11 06:49:00,50.9,46.6,0.00,East,88,5.4,11.9,85,0.00,,---,0.00,VWS V13.01,2013-05-11 10:49:00,
2013-05-11 06:54:00,50.7,46.4,0.00,SSW,203,10.1,10.5,85,0.00,,---,0.00,VWS V13.01,2013-05-11 10:54:00,
2013-05-11 06:59:00,50.5,46.2,0.00,WSW,257,8.7,15.9,85,0.00,,---,0.00,VWS V13.01,2013-05-11 10:59:00,
2013-05-11 07:04:00,50.2,45.8,0.00,West,264,7.6,11.0,85,0.00,,---,0.00,VWS V13.01,2013-05-11 11:04:00,
2013-05-11 07:09:00,50.2,45.8,0.00,West,265,8.1,11.0,85,0.00,,---,0.00,VWS V13.01,2013-05-11 11:09:00,
2013-05-11 07:14:00,50.0,45.4,0.00,West,260,9.2,15.0,84,0.00,,---,0.00,VWS V13.01,2013-05-11 11:14:00,
2013-05-11 07:19:00,49.8,45.2,0.00,North,5,8.7,15.0,84,0.00,,---,0.00,VWS V13.01,2013-05-11 11:19:00,
2013-05-11 07:24:00,49.6,44.7,0.00,NNE,21,7.6,12.8,83,0.00,,---,0.00,VWS V13.01,2013-05-11 11:24:00,
2013-05-11 07:29:00,49.8,45.2,0.00,West,272,8.1,12.8,84,0.00,,---,0.00,VWS V13.01,2013-05-11 11:29:00,
2013-05-11 07:34:00,50.0,45.4,0.00,WSW,257,7.6,11.0,84,0.00,,---,0.00,VWS V13.01,2013-05-11 11:34:00,
2013-05-11 07:39:00,50.2,45.5,0.00,WSW,255,8.7,11.0,84,0.00,,---,0.00,VWS V13.01,2013-05-11 11:39:00,
2013-05-11 07:44:00,50.5,45.9,0.00,SW,236,7.6,8.3,84,0.00,,---,0.00,VWS V13.01,2013-05-11 11:44:00,
2013-05-11 07:49:00,50.4,45.4,0.00,WSW,256,16.8,16.8,83,0.00,,---,0.00,VWS V13.01,2013-05-11 11:49:00,
2013-05-11 07:54:00,50.0,44.7,0.00,WSW,247,8.3,11.0,82,0.00,,---,0.00,VWS V13.01,2013-05-11 11:54:00,
2013-05-11 07:59:00,50.0,44.7,0.00,WSW,254,8.1,15.0,82,0.00,,---,0.00,VWS V13.01,2013-05-11 11:59:00,
2013-05-11 08:04:00,50.0,44.7,0.00,West,266,7.6,11.0,82,0.00,,---,0.00,VWS V13.01,2013-05-11 12:04:00,
2013-05-11 08:09:00,49.8,44.5,0.00,SW,215,8.7,13.2,82,0.00,,---,0.00,VWS V13.01,2013-05-11 12:09:00,
2013-05-11 08:14:00,49.6,44.4,0.00,West,276,8.7,10.1,82,0.00,,---,0.00,VWS V13.01,2013-05-11 12:14:00,
2013-05-11 08:19:00,49.8,44.5,0.00,SW,236,5.8,10.1,82,0.00,,---,0.00,VWS V13.01,2013-05-11 12:19:00,
2013-05-11 08:25:00,49.6,44.7,0.00,WSW,243,8.3,10.1,83,0.00,,---,0.00,VWS V13.01,2013-05-11 12:25:00,
2013-05-11 08:30:00,49.5,44.5,0.00,West,260,10.1,12.8,83,0.00,,---,0.00,VWS V13.01,2013-05-11 12:30:00,
2013-05-11 08:35:00,49.3,44.7,0.00,West,263,4.0,10.1,84,0.00,,---,0.00,VWS V13.01,2013-05-11 12:35:00,
2013-05-11 08:40:00,49.5,45.2,0.00,SSW,205,8.1,13.2,85,0.00,,---,0.00,VWS V13.01,2013-05-11 12:40:00,
2013-05-11 08:45:00,49.3,44.7,0.00,SW,234,6.3,13.2,84,0.00,,---,0.00,VWS V13.01,2013-05-11 12:45:00,
2013-05-11 08:50:00,49.3,45.0,0.00,SSW,196,8.7,13.2,85,0.00,,---,0.00,VWS V13.01,2013-05-11 12:50:00,
2013-05-11 08:55:00,49.3,45.0,0.00,North,5,4.0,8.7,85,0.00,,---,0.00,VWS V13.01,2013-05-11 12:55:00,
2013-05-11 09:00:00,49.5,45.5,0.00,SW,233,6.3,6.3,86,0.00,,---,0.00,VWS V13.01,2013-05-11 13:00:00,
2013-05-11 09:05:00,49.5,45.2,0.00,SW,228,10.5,12.8,85,0.00,,---,0.00,VWS V13.01,2013-05-11 13:05:00,
2013-05-11 09:10:00,49.6,45.3,0.00,WSW,255,4.0,7.6,85,0.00,,---,0.00,VWS V13.01,2013-05-11 13:10:00,
2013-05-11 09:15:00,50.2,45.8,0.00,NE,52,6.3,11.0,85,0.00,,---,0.00,VWS V13.01,2013-05-11 13:15:00,
2013-05-11 09:20:00,50.2,45.5,0.00,West,276,8.7,10.1,84,0.00,,---,0.00,VWS V13.01,2013-05-11 13:20:00,
2013-05-11 09:25:00,50.5,45.9,0.00,SSE,157,8.1,10.1,84,0.00,,---,0.00,VWS V13.01,2013-05-11 13:25:00,
2013-05-11 09:30:00,50.7,46.1,0.00,WSW,251,4.9,4.9,84,0.00,,---,0.00,VWS V13.01,2013-05-11 13:30:00,
2013-05-11 09:35:00,51.1,46.4,0.00,WSW,248,8.3,8.7,84,0.00,,---,0.00,VWS V13.01,2013-05-11 13:35:00,
2013-05-11 09:40:00,50.9,45.6,0.00,SW,233,8.3,8.3,82,0.00,,---,0.00,VWS V13.01,2013-05-11 13:40:00,
2013-05-11 09:45:00,50.7,45.4,0.00,West,268,5.8,10.5,82,0.00,,---,0.00,VWS V13.01,2013-05-11 13:45:00,
2013-05-11 09:51:00,50.5,44.9,0.00,SW,236,8.1,10.5,81,0.00,,---,0.00,VWS V13.01,2013-05-11 13:51:00,
2013-05-11 09:56:00,50.5,44.9,0.00,WSW,241,5.8,11.0,81,0.00,,---,0.00,VWS V13.01,2013-05-11 13:56:00,
2013-05-11 10:01:00,50.5,44.9,0.00,SW,223,5.8,5.8,81,0.00,,---,0.00,VWS V13.01,2013-05-11 14:01:00,
2013-05-11 10:06:00,50.4,45.1,0.00,SSE,168,5.4,11.0,82,0.00,,---,0.00,VWS V13.01,2013-05-11 14:06:00,
2013-05-11 10:11:00,50.5,45.3,0.00,WNW,292,5.4,6.3,82,0.00,,---,0.00,VWS V13.01,2013-05-11 14:11:00,
2013-05-11 10:16:00,50.5,45.3,0.00,WSW,258,10.1,10.1,82,0.00,,---,0.00,VWS V13.01,2013-05-11 14:16:00,
2013-05-11 10:21:00,50.7,45.4,0.00,West,266,6.3,7.6,82,0.00,,---,0.00,VWS V13.01,2013-05-11 14:21:00,
2013-05-11 10:26:00,50.9,45.6,0.00,North,5,2.7,7.6,82,0.00,,---,0.00,VWS V13.01,2013-05-11 14:26:00,
2013-05-11 10:31:00,50.7,45.4,0.00,WSW,254,5.4,5.8,82,0.00,,---,0.00,VWS V13.01,2013-05-11 14:31:00,
2013-05-11 10:36:00,51.1,45.8,0.00,WNW,291,11.0,11.0,82,0.00,,---,0.00,VWS V13.01,2013-05-11 14:36:00,
2013-05-11 10:41:00,50.9,45.3,0.00,West,261,8.1,8.3,81,0.00,,---,0.00,VWS V13.01,2013-05-11 14:41:00,
2013-05-11 10:46:00,50.9,45.0,0.00,SW,218,5.4,8.7,80,0.00,,---,0.00,VWS V13.01,2013-05-11 14:46:00,
2013-05-11 10:51:00,51.1,45.1,0.00,WSW,251,8.1,13.2,80,0.00,,---,0.00,VWS V13.01,2013-05-11 14:51:00,
2013-05-11 10:56:00,51.3,45.3,0.00,SW,235,5.4,13.2,80,0.00,,---,0.00,VWS V13.01,2013-05-11 14:56:00,
2013-05-11 11:01:00,51.4,45.5,0.00,SW,224,4.0,6.3,80,0.00,,---,0.00,VWS V13.01,2013-05-11 15:01:00,
2013-05-11 11:06:00,51.6,45.3,0.00,West,278,5.4,13.2,79,0.00,,---,0.00,VWS V13.01,2013-05-11 15:06:00,
2013-05-11 11:11:00,51.8,45.2,0.00,ESE,113,10.1,10.1,78,0.00,,---,0.00,VWS V13.01,2013-05-11 15:11:00,
2013-05-11 11:16:00,51.8,44.8,0.00,SW,229,5.8,13.2,77,0.00,,---,0.00,VWS V13.01,2013-05-11 15:16:00,
2013-05-11 11:21:00,52.0,45.0,0.00,West,261,5.4,6.3,77,0.00,,---,0.00,VWS V13.01,2013-05-11 15:21:00,
2013-05-11 11:26:00,52.0,45.3,0.00,WNW,287,3.6,7.6,78,0.00,,---,0.00,VWS V13.01,2013-05-11 15:26:00,
2013-05-11 11:31:00,52.7,45.7,0.00,West,266,6.3,6.3,77,0.00,,---,0.00,VWS V13.01,2013-05-11 15:31:00,
2013-05-11 11:36:00,53.1,45.7,0.00,North,8,7.6,8.3,76,0.00,,---,0.00,VWS V13.01,2013-05-11 15:36:00,
2013-05-11 11:41:00,53.1,45.4,0.00,SE,132,8.1,11.0,75,0.00,,---,0.00,VWS V13.01,2013-05-11 15:41:00,
2013-05-11 11:47:00,53.1,45.0,0.00,West,268,5.4,14.5,74,0.00,,---,0.00,VWS V13.01,2013-05-11 15:47:00,
2013-05-11 11:52:00,53.1,45.0,0.00,WSW,242,8.3,8.3,74,0.00,,---,0.00,VWS V13.01,2013-05-11 15:52:00,
2013-05-11 11:57:00,53.2,45.5,0.00,SW,229,7.2,8.3,75,0.00,,---,0.00,VWS V13.01,2013-05-11 15:57:00,
2013-05-11 12:02:00,53.2,44.8,0.00,SW,233,6.7,11.0,73,0.00,,---,0.00,VWS V13.01,2013-05-11 16:02:00,
2013-05-11 12:07:00,53.8,45.3,0.00,SW,236,5.4,12.3,73,0.00,,---,0.00,VWS V13.01,2013-05-11 16:07:00,
2013-05-11 12:12:00,53.6,44.8,0.00,WSW,258,10.5,10.5,72,0.00,,---,0.00,VWS V13.01,2013-05-11 16:12:00,
2013-05-11 12:17:00,53.4,45.0,0.00,North,5,3.1,12.8,73,0.00,,---,0.00,VWS V13.01,2013-05-11 16:17:00,
2013-05-11 12:22:00,53.8,45.0,0.00,West,280,7.6,7.6,72,0.00,,---,0.00,VWS V13.01,2013-05-11 16:22:00,
2013-05-11 12:27:00,54.0,45.2,0.00,WSW,247,2.7,8.3,72,0.00,,---,0.00,VWS V13.01,2013-05-11 16:27:00,
2013-05-11 12:32:00,54.1,45.3,0.00,North,4,8.1,8.1,72,0.00,,---,0.00,VWS V13.01,2013-05-11 16:32:00,
2013-05-11 12:37:00,54.1,45.0,0.00,West,267,3.6,10.5,71,0.00,,---,0.00,VWS V13.01,2013-05-11 16:37:00,
2013-05-11 12:42:00,54.3,45.1,0.00,SW,228,6.3,8.7,71,0.00,,---,0.00,VWS V13.01,2013-05-11 16:42:00,
2013-05-11 12:47:00,54.3,45.1,0.00,WSW,249,4.0,8.7,71,0.00,,---,0.00,VWS V13.01,2013-05-11 16:47:00,
2013-05-11 12:52:00,54.1,45.0,0.00,West,265,7.6,10.1,71,0.00,,---,0.00,VWS V13.01,2013-05-11 16:52:00,
2013-05-11 12:57:00,54.5,45.3,0.00,West,271,5.8,10.1,71,0.00,,---,0.00,VWS V13.01,2013-05-11 16:57:00,
2013-05-11 13:02:00,54.9,45.3,0.00,SW,232,3.6,7.6,70,0.00,,---,0.00,VWS V13.01,2013-05-11 17:02:00,
2013-05-11 13:07:00,54.9,45.7,0.00,North,6,8.1,8.1,71,0.00,,---,0.00,VWS V13.01,2013-05-11 17:07:00,
2013-05-11 13:12:00,54.7,45.1,0.00,West,279,5.8,8.1,70,0.00,,---,0.00,VWS V13.01,2013-05-11 17:12:00,
2013-05-11 13:17:00,54.7,45.1,0.00,East,91,3.6,8.1,70,0.00,,---,0.00,VWS V13.01,2013-05-11 17:17:00,
2013-05-11 13:22:00,54.7,45.1,0.00,West,271,4.0,10.1,70,0.00,,---,0.00,VWS V13.01,2013-05-11 17:22:00,
2013-05-11 13:28:00,54.7,45.1,0.00,SW,216,6.3,10.1,70,0.00,,---,0.00,VWS V13.01,2013-05-11 17:28:00,
2013-05-11 13:33:00,54.7,45.1,0.00,WNW,283,5.8,6.3,70,0.00,,---,0.00,VWS V13.01,2013-05-11 17:33:00,
2013-05-11 13:38:00,54.7,45.1,0.00,WSW,242,4.0,10.1,70,0.00,,---,0.00,VWS V13.01,2013-05-11 17:38:00,
2013-05-11 13:43:00,54.5,44.9,0.00,West,271,5.8,8.7,70,0.00,,---,0.00,VWS V13.01,2013-05-11 17:43:00,
2013-05-11 13:48:00,54.3,44.8,0.00,SW,216,4.0,8.7,70,0.00,,---,0.00,VWS V13.01,2013-05-11 17:48:00,
2013-05-11 13:53:00,54.3,44.8,0.00,North,6,6.3,6.3,70,0.00,,---,0.00,VWS V13.01,2013-05-11 17:53:00,
2013-05-11 13:58:00,54.1,44.6,0.00,West,268,4.0,6.3,70,0.00,,---,0.00,VWS V13.01,2013-05-11 17:58:00,
2013-05-11 14:03:00,54.1,44.6,0.00,WSW,258,5.4,10.5,70,0.00,,---,0.00,VWS V13.01,2013-05-11 18:03:00,
2013-05-11 14:08:00,54.1,44.6,0.00,West,260,5.8,10.5,70,0.00,,---,0.00,VWS V13.01,2013-05-11 18:08:00,
2013-05-11 14:13:00,54.0,44.4,0.00,SE,133,5.8,8.1,70,0.00,,---,0.00,VWS V13.01,2013-05-11 18:13:00,
2013-05-11 14:18:00,54.5,44.9,0.00,SW,222,8.1,8.1,70,0.00,,---,0.00,VWS V13.01,2013-05-11 18:18:00,
2013-05-11 14:23:00,55.0,45.1,0.00,SSW,195,5.4,8.3,69,0.00,,---,0.00,VWS V13.01,2013-05-11 18:23:00,
2013-05-11 14:28:00,55.2,45.2,0.00,North,5,5.8,9.6,69,0.00,,---,0.00,VWS V13.01,2013-05-11 18:28:00,
2013-05-11 14:33:00,55.6,45.6,0.00,West,278,5.4,8.3,69,0.00,,---,0.00,VWS V13.01,2013-05-11 18:33:00,
2013-05-11 14:38:00,55.9,45.5,0.00,WSW,241,6.3,8.3,68,0.00,,---,0.00,VWS V13.01,2013-05-11 18:38:00,
2013-05-11 14:43:00,56.5,45.7,0.00,East,92,8.1,10.5,67,0.00,,---,0.00,VWS V13.01,2013-05-11 18:43:00,
2013-05-11 14:49:00,56.8,46.0,0.00,WSW,240,5.8,10.5,67,0.00,,---,0.00,VWS V13.01,2013-05-11 18:49:00,
2013-05-11 14:54:00,57.0,45.8,0.00,NNE,32,8.1,8.1,66,0.00,,---,0.00,VWS V13.01,2013-05-11 18:54:00,
2013-05-11 14:59:00,57.0,45.4,0.00,WSW,245,8.7,8.7,65,0.00,,---,0.00,VWS V13.01,2013-05-11 18:59:00,
2013-05-11 15:04:00,56.8,45.2,0.00,SW,234,8.7,11.0,65,0.00,,---,0.00,VWS V13.01,2013-05-11 19:04:00,
2013-05-11 15:09:00,56.8,45.2,0.00,SSW,208,7.6,11.0,65,0.00,,---,0.00,VWS V13.01,2013-05-11 19:09:00,
2013-05-11 15:14:00,56.7,44.6,0.00,West,261,10.1,10.1,64,0.00,,---,0.00,VWS V13.01,2013-05-11 19:14:00,
2013-05-11 15:19:00,56.7,45.4,0.00,West,265,6.3,11.0,66,0.00,,---,0.00,VWS V13.01,2013-05-11 19:19:00,
2013-05-11 15:24:00,57.0,45.4,0.00,SW,232,7.2,11.0,65,0.00,,---,0.00,VWS V13.01,2013-05-11 19:24:00,
2013-05-11 15:29:00,57.2,45.2,0.00,SW,233,7.2,11.0,64,0.00,,---,0.00,VWS V13.01,2013-05-11 19:29:00,
2013-05-11 15:34:00,57.0,45.0,0.00,SW,235,7.6,12.8,64,0.00,,---,0.00,VWS V13.01,2013-05-11 19:34:00,
2013-05-11 15:39:00,57.0,45.4,0.00,SW,224,5.4,12.8,65,0.00,,---,0.00,VWS V13.01,2013-05-11 19:39:00,
2013-05-11 15:44:00,56.8,44.4,0.00,WSW,237,6.3,10.1,63,0.00,,---,0.00,VWS V13.01,2013-05-11 19:44:00,
2013-05-11 15:49:00,56.8,44.4,0.00,SSW,210,4.5,10.1,63,0.00,,---,0.00,VWS V13.01,2013-05-11 19:49:00,
2013-05-11 15:54:00,57.2,45.2,0.00,South,172,5.8,10.1,64,0.00,,---,0.00,VWS V13.01,2013-05-11 19:54:00,
2013-05-11 15:59:00,57.2,44.7,0.00,North,7,5.8,10.1,63,0.00,,---,0.00,VWS V13.01,2013-05-11 19:59:00,
2013-05-11 16:04:00,57.2,44.3,0.00,North,10,4.0,13.2,62,0.00,,---,0.00,VWS V13.01,2013-05-11 20:04:00,
2013-05-11 16:09:00,57.4,44.5,0.00,WSW,250,5.8,13.2,62,0.00,,---,0.00,VWS V13.01,2013-05-11 20:09:00,
2013-05-11 16:14:00,57.2,43.9,0.00,North,5,5.4,12.3,61,0.00,,---,0.00,VWS V13.01,2013-05-11 20:14:00,
2013-05-11 16:19:00,57.2,44.3,0.00,SSW,210,5.4,12.3,62,0.00,,---,0.00,VWS V13.01,2013-05-11 20:19:00,
2013-05-11 16:25:00,57.6,44.7,0.00,North,4,8.3,8.7,62,0.00,,---,0.00,VWS V13.01,2013-05-11 20:25:00,
2013-05-11 16:30:00,57.6,44.2,0.00,WSW,245,7.6,11.9,61,0.00,,---,0.00,VWS V13.01,2013-05-11 20:30:00,
2013-05-11 16:35:00,57.6,44.2,0.00,West,269,5.4,11.0,61,0.00,,---,0.00,VWS V13.01,2013-05-11 20:35:00,
2013-05-11 16:40:00,57.9,45.0,0.00,West,271,10.5,10.5,62,0.00,,---,0.00,VWS V13.01,2013-05-11 20:40:00,
2013-05-11 16:45:00,57.6,43.8,0.00,SW,227,6.3,10.5,60,0.00,,---,0.00,VWS V13.01,2013-05-11 20:45:00,
2013-05-11 16:50:00,57.0,43.7,0.00,WSW,243,8.7,8.7,61,0.00,,---,0.00,VWS V13.01,2013-05-11 20:50:00,
2013-05-11 16:55:00,56.8,44.0,0.00,WSW,244,9.6,11.9,62,0.00,,---,0.00,VWS V13.01,2013-05-11 20:55:00,
2013-05-11 17:00:00,56.8,44.0,0.00,WSW,246,7.6,7.6,62,0.00,,---,0.00,VWS V13.01,2013-05-11 21:00:00,
2013-05-11 17:05:00,56.8,44.4,0.00,WSW,258,8.1,8.7,63,0.00,,---,0.00,VWS V13.01,2013-05-11 21:05:00,
2013-05-11 17:10:00,56.7,43.8,0.00,SW,227,10.1,10.1,62,0.00,,---,0.00,VWS V13.01,2013-05-11 21:10:00,
2013-05-11 17:15:00,56.7,44.2,0.00,North,8,7.6,10.1,63,0.00,,---,0.00,VWS V13.01,2013-05-11 21:15:00,
2013-05-11 17:20:00,56.5,43.6,0.00,WSW,244,7.6,8.1,62,0.00,,---,0.00,VWS V13.01,2013-05-11 21:20:00,
2013-05-11 17:25:00,56.1,43.3,0.00,WNW,283,7.6,8.3,62,0.00,,---,0.00,VWS V13.01,2013-05-11 21:25:00,
2013-05-11 17:30:00,55.9,43.1,0.00,North,4,3.6,3.6,62,0.00,,---,0.00,VWS V13.01,2013-05-11 21:30:00,
2013-05-11 17:35:00,55.9,44.0,0.00,ENE,76,6.3,8.7,64,0.00,,---,0.00,VWS V13.01,2013-05-11 21:35:00,
2013-05-11 17:40:00,55.8,43.0,0.00,West,279,8.7,8.7,62,0.00,,---,0.00,VWS V13.01,2013-05-11 21:40:00,
2013-05-11 17:45:00,55.4,42.6,0.00,West,264,6.3,12.3,62,0.00,,---,0.00,VWS V13.01,2013-05-11 21:45:00,
2013-05-11 17:50:00,55.0,43.1,0.00,WSW,238,5.8,6.3,64,0.00,,---,0.00,VWS V13.01,2013-05-11 21:50:00,
2013-05-11 17:56:00,54.9,42.9,0.00,West,271,6.3,8.7,64,0.00,,---,0.00,VWS V13.01,2013-05-11 21:56:00,
2013-05-11 18:01:00,54.5,42.6,0.00,West,268,8.1,10.1,64,0.00,,---,0.00,VWS V13.01,2013-05-11 22:01:00,
2013-05-11 18:06:00,54.1,42.2,0.00,North,4,6.3,10.1,64,0.00,,---,0.00,VWS V13.01,2013-05-11 22:06:00,
2013-05-11 18:11:00,53.8,42.3,0.00,SW,224,6.3,8.7,65,0.00,,---,0.00,VWS V13.01,2013-05-11 22:11:00,
2013-05-11 18:16:00,53.6,42.1,0.00,SSW,209,6.3,8.7,65,0.00,,---,0.00,VWS V13.01,2013-05-11 22:16:00,
2013-05-11 18:21:00,53.2,42.2,0.00,North,3,8.1,8.7,66,0.00,,---,0.00,VWS V13.01,2013-05-11 22:21:00,
2013-05-11 18:26:00,53.1,42.0,0.00,North,4,5.8,8.7,66,0.00,,---,0.00,VWS V13.01,2013-05-11 22:26:00,
2013-05-11 18:31:00,52.7,41.7,0.00,SW,221,5.8,9.2,66,0.00,,---,0.00,VWS V13.01,2013-05-11 22:31:00,
2013-05-11 18:36:00,52.5,42.3,0.00,SW,217,4.0,9.2,68,0.00,,---,0.00,VWS V13.01,2013-05-11 22:36:00,
2013-05-11 18:41:00,52.7,42.5,0.00,SW,220,5.4,8.3,68,0.00,,---,0.00,VWS V13.01,2013-05-11 22:41:00,
2013-05-11 18:46:00,52.9,42.6,0.00,SW,231,5.4,10.5,68,0.00,,---,0.00,VWS V13.01,2013-05-11 22:46:00,
2013-05-11 18:51:00,52.3,42.1,0.00,SW,223,5.8,6.3,68,0.00,,---,0.00,VWS V13.01,2013-05-11 22:51:00,
2013-05-11 18:56:00,52.0,41.8,0.00,North,8,6.3,8.7,68,0.00,,---,0.00,VWS V13.01,2013-05-11 22:56:00,
2013-05-11 19:01:00,51.6,41.8,0.00,ESE,120,5.4,7.6,69,0.00,,---,0.00,VWS V13.01,2013-05-11 23:01:00,
2013-05-11 19:06:00,51.6,41.8,0.00,West,266,5.4,11.0,69,0.00,,---,0.00,VWS V13.01,2013-05-11 23:06:00,
2013-05-11 19:11:00,51.3,41.8,0.00,SW,231,6.3,8.3,70,0.00,,---,0.00,VWS V13.01,2013-05-11 23:11:00,
2013-05-11 19:16:00,51.1,41.7,0.00,SW,235,5.4,9.2,70,0.00,,---,0.00,VWS V13.01,2013-05-11 23:16:00,
2013-05-11 19:22:00,50.9,41.5,0.00,West,264,7.6,10.5,70,0.00,,---,0.00,VWS V13.01,2013-05-11 23:22:00,
2013-05-11 19:27:00,50.7,41.3,0.00,North,6,5.4,10.5,70,0.00,,---,0.00,VWS V13.01,2013-05-11 23:27:00,
2013-05-11 19:32:00,50.5,41.1,0.00,West,271,5.4,6.3,70,0.00,,---,0.00,VWS V13.01,2013-05-11 23:32:00,
2013-05-11 19:37:00,50.4,41.0,0.00,SW,221,3.1,7.2,70,0.00,,---,0.00,VWS V13.01,2013-05-11 23:37:00,
2013-05-11 19:42:00,50.4,41.3,0.00,North,3,6.3,6.3,71,0.00,,---,0.00,VWS V13.01,2013-05-11 23:42:00,
2013-05-11 19:47:00,50.2,41.2,0.00,WSW,255,3.6,7.6,71,0.00,,---,0.00,VWS V13.01,2013-05-11 23:47:00,
2013-05-11 19:52:00,50.2,41.5,0.00,SW,229,5.8,8.3,72,0.00,,---,0.00,VWS V13.01,2013-05-11 23:52:00,
2013-05-11 19:57:00,49.8,41.2,0.00,West,267,8.1,8.7,72,0.00,,---,0.00,VWS V13.01,2013-05-11 23:57:00,
2013-05-11 20:02:00,49.6,41.3,0.00,SSE,147,4.9,7.6,73,0.00,,---,0.00,VWS V13.01,2013-05-12 00:02:00,
2013-05-11 20:07:00,49.6,41.3,0.00,North,3,3.1,8.3,73,0.00,,---,0.00,VWS V13.01,2013-05-12 00:07:00,
2013-05-11 20:12:00,49.5,41.5,0.00,North,4,0.0,5.4,74,0.00,,---,0.00,VWS V13.01,2013-05-12 00:12:00,
2013-05-11 20:17:00,49.5,41.5,0.00,West,265,4.0,6.3,74,0.00,,---,0.00,VWS V13.01,2013-05-12 00:17:00,
2013-05-11 20:22:00,49.5,41.5,0.00,SW,227,2.7,4.9,74,0.00,,---,0.00,VWS V13.01,2013-05-12 00:22:00,
2013-05-11 20:28:00,49.5,41.9,0.00,SW,219,3.1,5.8,75,0.00,,---,0.00,VWS V13.01,2013-05-12 00:28:00,
2013-05-11 20:33:00,49.5,41.9,0.00,WSW,256,4.0,4.0,75,0.00,,---,0.00,VWS V13.01,2013-05-12 00:33:00,
2013-05-11 20:38:00,49.5,41.9,0.00,North,4,3.6,8.1,75,0.00,,---,0.00,VWS V13.01,2013-05-12 00:38:00,
2013-05-11 20:43:00,49.5,41.9,0.00,West,276,4.0,5.8,75,0.00,,---,0.00,VWS V13.01,2013-05-12 00:43:00,
2013-05-11 20:48:00,49.3,41.7,0.00,ENE,71,3.6,5.8,75,0.00,,---,0.00,VWS V13.01,2013-05-12 00:48:00,
2013-05-11 20:53:00,49.3,42.0,0.00,SW,222,3.1,6.3,76,0.00,,---,0.00,VWS V13.01,2013-05-12 00:53:00,
2013-05-11 20:58:00,49.3,42.0,0.00,North,7,5.4,8.1,76,0.00,,---,0.00,VWS V13.01,2013-05-12 00:58:00,
2013-05-11 21:03:00,49.5,42.2,0.00,North,5,5.4,6.3,76,0.00,,---,0.00,VWS V13.01,2013-05-12 01:03:00,
2013-05-11 21:08:00,49.3,42.0,0.00,WSW,242,3.1,8.3,76,0.00,,---,0.00,VWS V13.01,2013-05-12 01:08:00,
2013-05-11 21:13:00,49.3,42.0,0.00,WSW,251,3.6,6.3,76,0.00,,---,0.00,VWS V13.01,2013-05-12 01:13:00,
2013-05-11 21:18:00,49.3,42.4,0.00,SW,221,3.6,6.3,77,0.00,,---,0.00,VWS V13.01,2013-05-12 01:18:00,
2013-05-11 21:23:00,49.3,42.4,0.00,WSW,247,4.0,4.9,77,0.00,,---,0.00,VWS V13.01,2013-05-12 01:23:00,
2013-05-11 21:28:00,49.5,42.6,0.00,SW,224,4.0,6.3,77,0.00,,---,0.00,VWS V13.01,2013-05-12 01:28:00,
2013-05-11 21:34:00,49.3,42.4,0.00,North,4,4.0,8.3,77,0.00,,---,0.00,VWS V13.01,2013-05-12 01:34:00,
2013-05-11 21:39:00,49.3,42.4,0.00,North,4,3.1,8.3,77,0.00,,---,0.00,VWS V13.01,2013-05-12 01:39:00,
2013-05-11 21:44:00,49.3,42.4,0.00,North,7,3.1,7.6,77,0.00,,---,0.00,VWS V13.01,2013-05-12 01:44:00,
2013-05-11 21:49:00,49.3,42.4,0.00,SW,223,3.6,7.6,77,0.00,,---,0.00,VWS V13.01,2013-05-12 01:49:00,
2013-05-11 21:54:00,49.3,42.7,0.00,West,262,3.1,5.8,78,0.00,,---,0.00,VWS V13.01,2013-05-12 01:54:00,
2013-05-11 21:59:00,49.3,42.7,0.00,SW,224,3.1,5.8,78,0.00,,---,0.00,VWS V13.01,2013-05-12 01:59:00,
2013-05-11 22:04:00,49.3,42.7,0.00,WSW,241,3.6,5.8,78,0.00,,---,0.00,VWS V13.01,2013-05-12 02:04:00,
2013-05-11 22:09:00,49.3,42.7,0.00,SW,225,3.1,5.8,78,0.00,,---,0.00,VWS V13.01,2013-05-12 02:09:00,
2013-05-11 22:14:00,49.3,42.7,0.00,SSW,208,2.2,8.3,78,0.00,,---,0.00,VWS V13.01,2013-05-12 02:14:00,
2013-05-11 22:19:00,49.3,42.7,0.00,SW,227,0.0,8.3,78,0.00,,---,0.00,VWS V13.01,2013-05-12 02:19:00,
2013-05-11 22:24:00,49.3,42.7,0.00,North,3,0.0,5.4,78,0.00,,---,0.00,VWS V13.01,2013-05-12 02:24:00,
2013-05-11 22:29:00,49.3,42.7,0.00,WSW,241,0.0,6.3,78,0.00,,---,0.00,VWS V13.01,2013-05-12 02:29:00,
2013-05-11 22:34:00,49.3,43.0,0.00,WSW,241,0.0,0.0,79,0.00,,---,0.00,VWS V13.01,2013-05-12 02:34:00,
2013-05-11 22:39:00,49.3,43.0,0.00,WSW,241,0.0,0.0,79,0.00,,---,0.00,VWS V13.01,2013-05-12 02:39:00,
2013-05-11 22:44:00,49.1,42.9,0.00,SE,141,0.0,0.0,79,0.00,,---,0.00,VWS V13.01,2013-05-12 02:44:00,
2013-05-11 22:49:00,48.9,42.4,0.00,SE,141,0.0,0.0,78,0.00,,---,0.00,VWS V13.01,2013-05-12 02:49:00,
2013-05-11 22:54:00,48.7,42.5,0.00,SE,141,0.0,0.0,79,0.00,,---,0.00,VWS V13.01,2013-05-12 02:54:00,
2013-05-11 22:59:00,48.4,42.2,0.00,SE,141,0.0,0.0,79,0.00,,---,0.00,VWS V13.01,2013-05-12 02:59:00,
2013-05-11 23:04:00,48.2,42.0,0.00,SE,141,0.0,0.0,79,0.00,,---,0.00,VWS V13.01,2013-05-12 03:04:00,
2013-05-11 23:09:00,48.0,41.8,0.00,SE,141,0.0,0.0,79,0.00,,---,0.00,VWS V13.01,2013-05-12 03:09:00,
2013-05-11 23:14:00,47.8,41.7,0.00,SE,141,0.0,0.0,79,0.00,,---,0.00,VWS V13.01,2013-05-12 03:14:00,
2013-05-11 23:19:00,47.5,41.3,0.00,SE,141,0.0,0.0,79,0.00,,---,0.00,VWS V13.01,2013-05-12 03:19:00,
2013-05-11 23:24:00,47.3,41.1,0.00,SE,141,0.0,0.0,79,0.00,,---,0.00,VWS V13.01,2013-05-12 03:24:00,
2013-05-11 23:30:00,47.1,41.3,0.00,SE,141,0.0,0.0,80,0.00,,---,0.00,VWS V13.01,2013-05-12 03:30:00,
2013-05-11 23:35:00,46.8,40.9,0.00,SE,141,0.0,0.0,80,0.00,,---,0.00,VWS V13.01,2013-05-12 03:35:00,
2013-05-11 23:40:00,46.6,40.8,0.00,SE,141,0.0,0.0,80,0.00,,---,0.00,VWS V13.01,2013-05-12 03:40:00,
2013-05-11 23:45:00,46.4,40.9,0.00,SE,141,0.0,0.0,81,0.00,,---,0.00,VWS V13.01,2013-05-12 03:45:00,
2013-05-11 23:50:00,46.4,40.9,0.00,SE,141,0.0,0.0,81,0.00,,---,0.00,VWS V13.01,2013-05-12 03:50:00,
2013-05-11 23:55:00,46.4,41.2,0.00,South,184,0.0,0.0,82,0.00,,---,0.00,VWS V13.01,2013-05-12 03:55:00,